Time;durP1;ratioP1;P1;durP2;ratioP2;P2;SDS_P1;SDS_P2;PMS_P1;PMS_P2;Temp;Humidity;BMP_temperature;BMP_pressure;BME280_temperature;BME280_humidity;BME280_pressure;Samples;Min_cycle;Max_cycle;Signal;HPM_P1;HPM_P2
2021/08/29 00:01:57;;;;;;;11.87;4.40;;;14.40;99.90;;;;;;5095490;28;20225;-76
2021/08/29 00:04:24;;;;;;;9.23;5.07;;;14.40;99.90;;;;;;5095230;28;20289;-75
2021/08/29 00:06:51;;;;;;;9.80;4.70;;;14.40;99.90;;;;;;5094947;28;20662;-75
2021/08/29 00:09:18;;;;;;;17.40;4.87;;;14.30;99.90;;;;;;5095327;28;20226;-74
2021/08/29 00:11:45;;;;;;;12.87;5.10;;;14.40;99.90;;;;;;5095177;28;20286;-75
2021/08/29 00:14:12;;;;;;;10.90;4.83;;;14.30;99.90;;;;;;5094999;28;20566;-74
2021/08/29 00:16:40;;;;;;;8.73;5.00;;;14.40;99.90;;;;;;5094981;28;20238;-74
2021/08/29 00:19:07;;;;;;;12.20;5.00;;;14.40;99.90;;;;;;5095026;28;20281;-74
2021/08/29 00:21:34;;;;;;;9.83;5.00;;;14.30;99.90;;;;;;5094757;28;20241;-74
2021/08/29 00:24:01;;;;;;;11.77;5.23;;;14.30;99.90;;;;;;5094864;28;20242;-74
2021/08/29 00:26:27;;;;;;;13.37;5.87;;;14.30;99.90;;;;;;5094998;28;20257;-74
2021/08/29 00:28:55;;;;;;;19.83;6.83;;;14.30;99.90;;;;;;5094984;28;20345;-77
2021/08/29 00:31:22;;;;;;;15.63;5.63;;;14.30;99.90;;;;;;5094708;28;20203;-74
2021/08/29 00:33:50;;;;;;;14.27;6.03;;;14.30;99.90;;;;;;5094595;28;20290;-75
2021/08/29 00:36:17;;;;;;;16.10;5.70;;;14.10;99.90;;;;;;5094823;28;20287;-74
2021/08/29 00:38:44;;;;;;;14.73;5.63;;;14.20;99.90;;;;;;5094528;28;20290;-75
2021/08/29 00:41:11;;;;;;;17.33;5.93;;;14.10;99.90;;;;;;5094523;28;20231;-75
2021/08/29 00:43:39;;;;;;;14.10;6.30;;;14.10;99.90;;;;;;5094821;28;20234;-75
2021/08/29 00:46:06;;;;;;;13.23;6.07;;;14.10;99.90;;;;;;5094296;28;20310;-77
2021/08/29 00:48:33;;;;;;;16.53;6.47;;;14.10;99.90;;;;;;5094489;28;20282;-76
2021/08/29 00:51:02;;;;;;;13.73;5.63;;;14.10;99.90;;;;;;5094435;28;20230;-75
2021/08/29 00:53:32;;;;;;;17.63;5.53;;;14.10;99.90;;;;;;5094274;28;20195;-75
2021/08/29 00:55:59;;;;;;;12.87;5.80;;;14.10;99.90;;;;;;5094361;28;20195;-73
2021/08/29 00:58:27;;;;;;;14.23;6.17;;;14.10;99.90;;;;;;5094221;28;20286;-74
2021/08/29 01:00:57;;;;;;;19.47;6.17;;;14.10;99.90;;;;;;5094052;28;20671;-74
2021/08/29 01:03:27;;;;;;;13.80;5.33;;;14.10;99.90;;;;;;5094033;28;20199;-76
2021/08/29 01:06:04;;;;;;;13.93;5.60;;;14.20;99.90;;;;;;5093740;28;20601;-74
2021/08/29 01:08:35;;;;;;;10.60;5.40;;;14.20;99.90;;;;;;5094089;28;20206;-74
2021/08/29 01:11:09;;;;;;;17.43;5.97;;;14.30;99.90;;;;;;5094157;28;20285;-74
2021/08/29 01:13:40;;;;;;;14.63;5.40;;;14.20;99.90;;;;;;5094114;28;20586;-74
2021/08/29 01:16:09;;;;;;;14.47;6.07;;;14.30;99.90;;;;;;5093821;28;20683;-74
2021/08/29 01:18:38;;;;;;;14.53;5.67;;;14.30;99.90;;;;;;5094037;28;20198;-78
2021/08/29 01:21:12;;;;;;;13.70;5.97;;;14.30;99.90;;;;;;5094123;28;20286;-74
2021/08/29 01:23:41;;;;;;;14.67;6.07;;;14.20;99.90;;;;;;5093863;28;20209;-74
2021/08/29 01:26:17;;;;;;;17.77;6.07;;;14.20;99.90;;;;;;5099948;28;20725;-74
2021/08/29 01:28:56;;;;;;;12.03;6.27;;;14.10;99.90;;;;;;5108684;28;20186;-74
2021/08/29 01:31:26;;;;;;;12.23;6.20;;;14.10;99.90;;;;;;5107711;28;20229;-76
2021/08/29 01:33:53;;;;;;;20.73;7.33;;;14.10;99.90;;;;;;5105455;28;20254;-74
2021/08/29 01:36:21;;;;;;;17.00;6.77;;;14.10;99.90;;;;;;5104946;28;20199;-75
2021/08/29 01:38:48;;;;;;;14.97;6.90;;;14.20;99.90;;;;;;5103736;28;20634;-74
2021/08/29 01:41:18;;;;;;;15.57;7.23;;;14.20;99.90;;;;;;5100831;28;20286;-75
2021/08/29 01:43:46;;;;;;;15.77;6.50;;;14.20;99.90;;;;;;5099721;28;20202;-75
2021/08/29 01:46:15;;;;;;;18.07;7.10;;;14.30;99.90;;;;;;5102978;28;20309;-75
2021/08/29 01:48:42;;;;;;;18.97;6.93;;;14.30;99.90;;;;;;5103677;28;20664;-74
2021/08/29 01:51:11;;;;;;;13.87;7.20;;;14.40;99.90;;;;;;5106541;28;20198;-76
2021/08/29 01:53:39;;;;;;;17.10;7.17;;;14.50;99.90;;;;;;5105284;28;20191;-74
2021/08/29 01:56:06;;;;;;;12.97;6.80;;;14.60;99.90;;;;;;5102436;28;20194;-75
2021/08/29 01:58:34;;;;;;;16.17;7.20;;;14.50;99.90;;;;;;5097708;28;20285;-74
2021/08/29 02:01:03;;;;;;;21.93;7.00;;;14.60;99.90;;;;;;5097363;28;20598;-74
2021/08/29 02:03:32;;;;;;;13.87;7.53;;;14.60;99.90;;;;;;5093366;28;20195;-74
2021/08/29 02:06:10;;;;;;;16.50;6.93;;;14.60;99.90;;;;;;5093558;28;20199;-74
2021/08/29 02:08:39;;;;;;;14.50;7.10;;;14.50;99.90;;;;;;5093244;28;20200;-74
2021/08/29 02:11:08;;;;;;;16.30;7.33;;;14.50;99.90;;;;;;5093309;28;20207;-74
2021/08/29 02:13:40;;;;;;;15.97;7.73;;;14.50;99.90;;;;;;5093071;28;20195;-74
2021/08/29 02:16:14;;;;;;;16.13;7.17;;;14.50;99.90;;;;;;5092961;28;20305;-74
2021/08/29 02:18:44;;;;;;;16.23;7.03;;;14.50;99.90;;;;;;5093087;28;20203;-74
2021/08/29 02:21:12;;;;;;;16.83;7.87;;;14.50;99.90;;;;;;5101480;28;20198;-74
2021/08/29 02:23:40;;;;;;;20.00;7.30;;;14.50;99.90;;;;;;5097798;28;20281;-74
2021/08/29 02:26:07;;;;;;;20.87;7.47;;;14.50;99.90;;;;;;5097101;28;20199;-76
2021/08/29 02:28:34;;;;;;;20.30;7.00;;;14.50;99.90;;;;;;5096907;28;20286;-75
2021/08/29 02:31:02;;;;;;;24.23;7.70;;;14.50;99.90;;;;;;5097320;28;20277;-74
2021/08/29 02:33:29;;;;;;;22.13;7.63;;;14.60;99.90;;;;;;5096966;28;20618;-74
2021/08/29 02:36:00;;;;;;;16.60;7.30;;;14.50;99.90;;;;;;5097170;28;20559;-74
2021/08/29 02:38:27;;;;;;;17.83;7.20;;;14.60;99.90;;;;;;5096852;28;20203;-74
2021/08/29 02:40:56;;;;;;;16.60;6.53;;;14.70;99.90;;;;;;5096638;28;20226;-74
2021/08/29 02:43:24;;;;;;;16.80;7.83;;;14.80;99.90;;;;;;5096897;28;20205;-74
2021/08/29 02:45:52;;;;;;;14.73;7.03;;;14.80;99.90;;;;;;5096946;28;20191;-74
2021/08/29 02:48:19;;;;;;;15.70;6.53;;;14.90;99.90;;;;;;5096739;28;20227;-74
2021/08/29 02:50:47;;;;;;;17.37;7.20;;;14.90;99.90;;;;;;5096797;28;20281;-74
2021/08/29 02:53:18;;;;;;;16.50;7.03;;;14.90;99.90;;;;;;5096495;28;20683;-74
2021/08/29 02:55:48;;;;;;;16.47;6.60;;;14.90;99.90;;;;;;5096609;28;20285;-76
2021/08/29 02:58:17;;;;;;;15.83;7.10;;;15.00;99.90;;;;;;5096749;28;20298;-75
2021/08/29 03:00:44;;;;;;;25.13;6.70;;;15.00;99.90;;;;;;5096537;28;20206;-74
2021/08/29 03:03:12;;;;;;;17.50;7.03;;;15.00;99.90;;;;;;5096343;28;20285;-75
2021/08/29 03:05:40;;;;;;;14.40;6.53;;;15.00;99.90;;;;;;5096365;28;20282;-75
2021/08/29 03:08:07;;;;;;;14.33;6.40;;;14.90;99.90;;;;;;5096091;28;20229;-75
2021/08/29 03:10:36;;;;;;;13.97;6.67;;;15.00;99.90;;;;;;5096325;28;20252;-74
2021/08/29 03:13:04;;;;;;;16.30;6.60;;;14.90;99.90;;;;;;5096152;28;20617;-77
2021/08/29 03:15:31;;;;;;;17.37;7.23;;;15.00;99.90;;;;;;5096183;28;20748;-74
2021/08/29 03:17:59;;;;;;;14.93;6.90;;;15.00;99.90;;;;;;5096109;28;20209;-76
2021/08/29 03:20:28;;;;;;;13.50;6.40;;;15.00;99.90;;;;;;5096073;28;20233;-74
2021/08/29 03:22:55;;;;;;;16.93;6.93;;;15.00;99.90;;;;;;5095959;28;20195;-76
2021/08/29 03:25:23;;;;;;;17.03;6.73;;;15.10;99.90;;;;;;5096440;28;20202;-75
2021/08/29 03:27:51;;;;;;;13.77;6.57;;;15.10;99.90;;;;;;5096121;28;20672;-74
2021/08/29 03:30:18;;;;;;;12.40;6.20;;;15.10;99.90;;;;;;5095913;28;20722;-74
2021/08/29 03:32:45;;;;;;;18.20;6.80;;;15.20;99.90;;;;;;5094526;28;20281;-74
2021/08/29 03:35:14;;;;;;;17.27;6.50;;;15.30;99.90;;;;;;5095588;28;20198;-75
2021/08/29 03:37:41;;;;;;;16.60;6.90;;;15.30;99.90;;;;;;5095861;28;20243;-74
2021/08/29 03:40:09;;;;;;;16.90;6.70;;;15.30;99.90;;;;;;5095783;28;20567;-74
2021/08/29 03:42:36;;;;;;;14.23;6.80;;;15.40;99.90;;;;;;5095541;28;20285;-74
2021/08/29 03:45:07;;;;;;;17.67;6.60;;;15.40;99.90;;;;;;5095633;28;20205;-75
2021/08/29 03:47:35;;;;;;;12.00;7.03;;;15.30;99.90;;;;;;5095481;28;20339;-74
2021/08/29 03:50:03;;;;;;;16.63;6.93;;;15.30;99.90;;;;;;5095343;28;20638;-77
2021/08/29 03:52:30;;;;;;;14.13;6.17;;;15.30;99.90;;;;;;5095342;28;20298;-73
2021/08/29 03:54:57;;;;;;;15.97;6.13;;;15.30;99.90;;;;;;5095199;28;20231;-75
2021/08/29 03:57:25;;;;;;;16.40;6.70;;;15.30;99.90;;;;;;5095292;28;20282;-74
2021/08/29 03:59:52;;;;;;;18.17;6.60;;;15.30;99.90;;;;;;5095142;28;20277;-75
2021/08/29 04:02:21;;;;;;;15.30;7.00;;;15.30;99.90;;;;;;5095674;28;20635;-74
2021/08/29 04:04:48;;;;;;;17.10;7.47;;;15.30;99.90;;;;;;5095322;28;20199;-75
2021/08/29 04:07:16;;;;;;;14.93;7.10;;;15.30;99.90;;;;;;5094942;28;20688;-75
2021/08/29 04:09:45;;;;;;;15.73;6.57;;;15.10;99.90;;;;;;5095046;28;20198;-75
2021/08/29 04:12:13;;;;;;;15.10;7.00;;;15.10;99.90;;;;;;5095150;28;20278;-76
2021/08/29 04:14:42;;;;;;;15.57;7.07;;;15.00;99.90;;;;;;5094991;28;20282;-75
2021/08/29 04:17:10;;;;;;;18.47;7.07;;;15.00;99.90;;;;;;5094769;28;20683;-77
2021/08/29 04:19:42;;;;;;;19.83;7.20;;;15.00;99.90;;;;;;5094958;28;20201;-75
2021/08/29 04:22:11;;;;;;;15.27;7.10;;;14.90;99.90;;;;;;5095177;28;20202;-75
2021/08/29 04:24:38;;;;;;;17.50;7.53;;;15.00;99.90;;;;;;5094659;28;20649;-75
2021/08/29 04:27:06;;;;;;;11.73;6.53;;;15.10;99.90;;;;;;5094512;28;20284;-75
2021/08/29 04:29:34;;;;;;;20.60;7.57;;;15.10;99.90;;;;;;5094548;28;20286;-74
2021/08/29 04:32:03;;;;;;;21.53;6.77;;;15.20;99.90;;;;;;5094536;28;20202;-76
2021/08/29 04:34:30;;;;;;;17.37;7.17;;;15.30;99.90;;;;;;5094500;28;20290;-76
2021/08/29 04:36:58;;;;;;;14.07;7.13;;;15.30;99.90;;;;;;5094543;28;20286;-75
2021/08/29 04:39:25;;;;;;;20.70;7.27;;;15.30;99.90;;;;;;5094511;28;20272;-75
2021/08/29 04:41:52;;;;;;;20.00;7.23;;;15.30;99.90;;;;;;5094350;28;20290;-74
2021/08/29 04:44:19;;;;;;;18.60;7.57;;;15.30;99.90;;;;;;5101391;28;20218;-75
2021/08/29 04:46:46;;;;;;;18.20;6.70;;;15.30;99.90;;;;;;5098875;28;20226;-74
2021/08/29 04:49:13;;;;;;;16.67;6.60;;;15.30;99.90;;;;;;5094197;28;20720;-74
2021/08/29 04:51:40;;;;;;;14.43;6.93;;;15.40;99.90;;;;;;5094314;28;20657;-74
2021/08/29 04:54:08;;;;;;;14.27;6.83;;;15.50;99.90;;;;;;5094263;28;20252;-74
2021/08/29 04:56:35;;;;;;;18.43;7.27;;;15.40;99.90;;;;;;5094050;28;20206;-76
2021/08/29 04:59:03;;;;;;;14.67;7.10;;;15.40;99.90;;;;;;5094238;28;20194;-74
2021/08/29 05:01:31;;;;;;;13.60;6.83;;;15.40;99.90;;;;;;5094089;28;20710;-76
2021/08/29 05:03:58;;;;;;;20.00;7.90;;;15.40;99.90;;;;;;5093980;28;20195;-75
2021/08/29 05:06:26;;;;;;;13.83;6.37;;;15.40;99.90;;;;;;5094064;28;20198;-77
2021/08/29 05:08:53;;;;;;;16.00;6.53;;;15.40;99.90;;;;;;5093784;28;20226;-75
2021/08/29 05:11:21;;;;;;;17.10;6.40;;;15.40;99.90;;;;;;5093847;28;20278;-77
2021/08/29 05:13:48;;;;;;;15.97;5.87;;;15.50;99.90;;;;;;5094077;28;20249;-75
2021/08/29 05:16:15;;;;;;;17.83;6.50;;;15.60;99.90;;;;;;5093587;28;20679;-75
2021/08/29 05:18:42;;;;;;;15.40;6.57;;;15.60;99.90;;;;;;5093919;28;20209;-77
2021/08/29 05:21:09;;;;;;;11.07;5.50;;;15.70;99.90;;;;;;5093668;28;20235;-76
2021/08/29 05:23:36;;;;;;;13.43;5.77;;;15.70;99.90;;;;;;5093618;28;20719;-76
2021/08/29 05:26:03;;;;;;;14.20;6.03;;;15.80;99.90;;;;;;5093599;28;20226;-74
2021/08/29 05:28:31;;;;;;;12.87;5.40;;;15.90;99.90;;;;;;5093470;28;20313;-75
2021/08/29 05:30:58;;;;;;;11.57;5.83;;;15.90;99.90;;;;;;5093662;28;20207;-74
2021/08/29 05:33:25;;;;;;;13.70;5.70;;;16.00;99.90;;;;;;5093612;28;20199;-76
2021/08/29 05:35:52;;;;;;;11.83;5.97;;;16.00;99.90;;;;;;5093328;28;20631;-75
2021/08/29 05:38:19;;;;;;;10.80;5.73;;;16.00;99.90;;;;;;5093290;28;20285;-74
2021/08/29 05:40:45;;;;;;;12.77;6.00;;;16.00;99.90;;;;;;5093344;28;20201;-74
2021/08/29 05:43:12;;;;;;;14.73;5.60;;;16.00;99.90;;;;;;5093625;28;20294;-74
2021/08/29 05:45:41;;;;;;;18.70;6.67;;;16.00;99.90;;;;;;5093727;28;20301;-75
2021/08/29 05:48:07;;;;;;;17.87;5.50;;;16.00;99.90;;;;;;5093304;28;20313;-74
2021/08/29 05:50:34;;;;;;;12.57;5.60;;;16.10;99.90;;;;;;5093242;28;20222;-76
2021/08/29 05:53:01;;;;;;;14.97;5.90;;;16.10;99.90;;;;;;5093136;28;20657;-74
2021/08/29 05:55:28;;;;;;;15.47;5.83;;;16.20;99.90;;;;;;5092855;28;20285;-75
2021/08/29 05:57:55;;;;;;;17.63;6.03;;;16.20;99.90;;;;;;5093268;28;20285;-76
2021/08/29 06:00:22;;;;;;;9.03;5.13;;;16.20;99.90;;;;;;5093467;28;20293;-75
2021/08/29 06:02:50;;;;;;;12.67;6.00;;;16.30;99.90;;;;;;5093283;28;20273;-77
2021/08/29 06:05:17;;;;;;;18.57;5.77;;;16.30;99.90;;;;;;5093096;28;20282;-75
2021/08/29 06:07:44;;;;;;;12.57;5.53;;;16.40;99.90;;;;;;5093046;28;20325;-77
2021/08/29 06:10:12;;;;;;;10.67;5.07;;;16.50;99.90;;;;;;5093450;28;20286;-74
2021/08/29 06:12:39;;;;;;;15.83;5.60;;;16.50;99.90;;;;;;5093199;28;20549;-75
2021/08/29 06:15:07;;;;;;;13.33;5.73;;;16.60;99.90;;;;;;5093022;28;20195;-74
2021/08/29 06:17:34;;;;;;;11.30;5.40;;;16.70;99.90;;;;;;5092837;28;20227;-74
2021/08/29 06:20:03;;;;;;;12.00;5.67;;;16.90;99.90;;;;;;5092759;28;20277;-78
2021/08/29 06:22:30;;;;;;;10.43;5.30;;;17.00;99.90;;;;;;5092797;28;20229;-74
2021/08/29 06:24:57;;;;;;;11.00;5.10;;;17.00;99.90;;;;;;5093205;28;20277;-75
2021/08/29 06:27:24;;;;;;;15.00;5.97;;;17.20;99.90;;;;;;5092814;28;20290;-74
2021/08/29 06:29:51;;;;;;;13.30;5.20;;;17.20;99.90;;;;;;5092774;28;20206;-75
2021/08/29 06:32:18;;;;;;;12.47;5.60;;;17.20;99.90;;;;;;5092953;28;20278;-75
2021/08/29 06:34:45;;;;;;;13.13;5.20;;;17.30;99.90;;;;;;5092611;28;20678;-78
2021/08/29 06:37:13;;;;;;;14.03;5.77;;;17.40;99.90;;;;;;5093087;28;20286;-77
2021/08/29 06:39:40;;;;;;;10.10;5.50;;;17.50;99.90;;;;;;5092573;28;20660;-75
2021/08/29 06:42:07;;;;;;;8.37;4.90;;;17.50;99.90;;;;;;5092936;28;20286;-75
2021/08/29 06:44:34;;;;;;;12.67;5.60;;;17.60;99.90;;;;;;5093030;28;20297;-76
2021/08/29 06:47:01;;;;;;;10.67;5.10;;;17.60;99.90;;;;;;5092948;28;20576;-76
2021/08/29 06:49:28;;;;;;;13.30;5.07;;;17.80;99.90;;;;;;5092697;28;20284;-74
2021/08/29 06:51:55;;;;;;;9.97;5.57;;;17.80;99.90;;;;;;5092914;28;20277;-78
2021/08/29 06:54:23;;;;;;;12.73;5.17;;;17.90;99.90;;;;;;5093070;28;20286;-74
2021/08/29 06:56:50;;;;;;;9.53;4.90;;;18.10;99.90;;;;;;5092786;28;20279;-77
2021/08/29 06:59:17;;;;;;;13.00;4.93;;;18.10;99.90;;;;;;5092585;28;20652;-76
2021/08/29 07:01:44;;;;;;;9.47;5.03;;;18.10;99.90;;;;;;5092459;28;20732;-75
2021/08/29 07:04:10;;;;;;;12.63;5.07;;;18.20;99.90;;;;;;5092647;28;20241;-75
2021/08/29 07:06:37;;;;;;;12.23;4.73;;;18.20;99.90;;;;;;5093530;28;20301;-77
2021/08/29 07:09:04;;;;;;;9.17;4.63;;;18.30;99.90;;;;;;5096348;28;20317;-76
2021/08/29 07:11:33;;;;;;;13.80;4.83;;;18.40;99.90;;;;;;5096379;28;20202;-74
2021/08/29 07:14:00;;;;;;;7.73;4.50;;;18.50;99.90;;;;;;5096335;28;20195;-75
2021/08/29 07:16:27;;;;;;;10.53;5.40;;;18.60;99.90;;;;;;5099913;28;20218;-75
2021/08/29 07:18:54;;;;;;;9.27;4.83;;;18.30;99.90;;;;;;5104691;28;20649;-75
2021/08/29 07:21:21;;;;;;;15.40;5.10;;;18.40;99.90;;;;;;5096336;28;20233;-75
2021/08/29 07:23:48;;;;;;;9.23;4.53;;;18.30;99.90;;;;;;5096133;28;20235;-75
2021/08/29 07:26:14;;;;;;;14.37;5.40;;;18.40;99.90;;;;;;5096042;28;20264;-75
2021/08/29 07:28:43;;;;;;;7.37;4.30;;;18.30;99.90;;;;;;5095935;28;20215;-77
2021/08/29 07:31:10;;;;;;;10.07;5.00;;;18.50;99.90;;;;;;5096036;28;20294;-74
2021/08/29 07:33:37;;;;;;;10.60;4.27;;;18.40;99.90;;;;;;5096094;28;20234;-76
2021/08/29 07:36:05;;;;;;;11.50;4.90;;;18.50;99.90;;;;;;5095892;28;20290;-75
2021/08/29 07:38:32;;;;;;;11.03;4.60;;;18.50;99.90;;;;;;5095857;28;20285;-78
2021/08/29 07:40:59;;;;;;;11.40;4.60;;;18.50;99.90;;;;;;5095839;28;20203;-75
2021/08/29 07:43:26;;;;;;;9.83;4.40;;;18.60;99.90;;;;;;5095850;28;20246;-74
2021/08/29 07:45:54;;;;;;;12.23;4.70;;;18.20;99.90;;;;;;5095724;28;20724;-75
2021/08/29 07:48:21;;;;;;;21.13;4.90;;;18.10;99.90;;;;;;5095466;28;20317;-75
2021/08/29 07:50:48;;;;;;;7.47;3.77;;;18.20;99.90;;;;;;5095650;28;20660;-77
2021/08/29 07:53:15;;;;;;;9.33;4.00;;;18.40;99.90;;;;;;5095596;28;20230;-78
2021/08/29 07:55:42;;;;;;;10.80;4.50;;;18.70;99.90;;;;;;5095438;28;20245;-75
2021/08/29 07:58:09;;;;;;;11.40;3.67;;;18.50;99.90;;;;;;5095730;28;20199;-74
2021/08/29 08:00:36;;;;;;;7.73;3.77;;;17.90;99.90;;;;;;5095533;28;20227;-76
2021/08/29 08:03:04;;;;;;;14.07;3.60;;;17.70;99.90;;;;;;5095542;28;20567;-74
2021/08/29 08:05:31;;;;;;;9.70;2.97;;;17.90;99.90;;;;;;5095329;28;20673;-76
2021/08/29 08:07:59;;;;;;;9.67;3.07;;;17.80;99.90;;;;;;5095229;28;20227;-74
2021/08/29 08:10:26;;;;;;;8.50;2.60;;;17.90;99.90;;;;;;5095203;28;20286;-75
2021/08/29 08:12:53;;;;;;;10.13;2.97;;;18.20;99.90;;;;;;5095462;28;20226;-74
2021/08/29 08:15:20;;;;;;;12.23;3.27;;;18.20;99.90;;;;;;5095379;28;20202;-75
2021/08/29 08:17:47;;;;;;;13.50;3.33;;;18.50;99.90;;;;;;5095014;28;20278;-75
2021/08/29 08:20:16;;;;;;;11.03;3.10;;;18.70;99.90;;;;;;5094813;28;20720;-75
2021/08/29 08:22:44;;;;;;;10.33;3.60;;;18.60;99.90;;;;;;5094965;28;20673;-75
2021/08/29 08:25:11;;;;;;;10.17;4.00;;;18.60;99.90;;;;;;5094656;28;20191;-76
2021/08/29 08:27:38;;;;;;;12.23;3.20;;;18.90;99.90;;;;;;5095180;28;20203;-78
2021/08/29 08:30:07;;;;;;;10.20;3.60;;;18.90;99.90;;;;;;5094955;28;20309;-76
2021/08/29 08:32:34;;;;;;;11.37;3.43;;;18.40;99.90;;;;;;5094824;28;20190;-77
2021/08/29 08:35:01;;;;;;;12.37;3.63;;;18.40;99.90;;;;;;5094497;28;20191;-75
2021/08/29 08:37:29;;;;;;;8.63;3.07;;;18.60;99.90;;;;;;5094779;28;20290;-74
2021/08/29 08:39:56;;;;;;;9.60;2.90;;;18.30;99.90;;;;;;5094494;28;20207;-75
2021/08/29 08:42:23;;;;;;;8.73;2.83;;;18.10;99.90;;;;;;5094641;28;20285;-76
2021/08/29 08:44:50;;;;;;;11.80;2.93;;;18.10;99.90;;;;;;5094809;28;20222;-75
2021/08/29 08:47:18;;;;;;;13.87;2.90;;;18.10;99.90;;;;;;5094598;28;20234;-75
2021/08/29 08:49:46;;;;;;;8.10;2.80;;;18.40;99.90;;;;;;5094234;28;20489;-75
2021/08/29 08:52:17;;;;;;;10.33;2.53;;;18.80;99.90;;;;;;5094330;28;20226;-75
2021/08/29 08:54:47;;;;;;;10.43;3.00;;;18.80;99.90;;;;;;5094709;28;20198;-74
2021/08/29 08:57:17;;;;;;;7.87;3.13;;;18.30;99.90;;;;;;5094653;28;20195;-74
2021/08/29 08:59:44;;;;;;;9.23;2.90;;;18.70;99.90;;;;;;5094215;28;20191;-74
2021/08/29 09:02:13;;;;;;;9.90;2.53;;;19.00;99.90;;;;;;5094318;28;20199;-76
2021/08/29 09:04:40;;;;;;;9.13;2.30;;;19.10;99.90;;;;;;5093987;28;20664;-78
2021/08/29 09:07:08;;;;;;;8.67;2.50;;;18.40;99.90;;;;;;5093920;28;20290;-76
2021/08/29 09:09:35;;;;;;;10.40;2.97;;;18.20;99.90;;;;;;5094046;28;20250;-77
2021/08/29 09:12:04;;;;;;;7.23;2.73;;;18.40;99.90;;;;;;5094051;28;20209;-75
2021/08/29 09:14:44;;;;;;;9.97;2.93;;;18.50;99.90;;;;;;5094069;28;20230;-75
2021/08/29 09:17:29;;;;;;;10.20;2.90;;;18.40;99.90;;;;;;5094216;28;20629;-77
2021/08/29 09:20:16;;;;;;;8.80;2.97;;;18.50;99.90;;;;;;5093888;28;20278;-77
2021/08/29 09:22:44;;;;;;;5.80;2.60;;;18.80;99.90;;;;;;5094290;28;20230;-78
2021/08/29 09:25:15;;;;;;;10.20;2.70;;;19.20;99.90;;;;;;5093857;28;20230;-75
2021/08/29 09:27:48;;;;;;;7.67;2.47;;;19.30;99.90;;;;;;5093617;28;20682;-75
2021/08/29 09:30:17;;;;;;;7.53;2.60;;;19.10;99.90;;;;;;5093760;28;20314;-74
2021/08/29 09:32:49;;;;;;;9.33;2.97;;;18.90;99.90;;;;;;5093872;28;20203;-75
2021/08/29 09:35:16;;;;;;;5.93;2.67;;;19.10;99.90;;;;;;5093836;28;20285;-77
2021/08/29 09:37:43;;;;;;;7.33;2.43;;;19.30;99.90;;;;;;5093678;28;20234;-76
2021/08/29 09:40:20;;;;;;;7.60;2.43;;;19.10;99.90;;;;;;5093453;28;20301;-76
2021/08/29 09:42:49;;;;;;;11.33;3.27;;;19.40;99.90;;;;;;5093655;28;20598;-76
2021/08/29 09:45:25;;;;;;;8.00;2.87;;;19.30;99.90;;;;;;5093479;28;20206;-76
2021/08/29 09:47:53;;;;;;;10.33;3.40;;;18.60;99.90;;;;;;5093433;28;20264;-76
2021/08/29 09:50:23;;;;;;;8.27;3.07;;;18.70;99.90;;;;;;5095563;28;20330;-75
2021/08/29 09:52:58;;;;;;;11.57;3.70;;;18.70;99.90;;;;;;5095875;28;20233;-76
2021/08/29 09:55:30;;;;;;;11.60;3.63;;;18.90;99.90;;;;;;5093481;28;20281;-75
2021/08/29 09:57:58;;;;;;;10.73;3.47;;;19.20;99.90;;;;;;5093185;28;20708;-75
2021/08/29 10:00:25;;;;;;;14.50;3.93;;;19.00;99.90;;;;;;5093552;28;20321;-77
2021/08/29 10:03:05;;;;;;;6.50;3.20;;;19.10;99.90;;;;;;5093201;28;20245;-75
2021/08/29 10:05:32;;;;;;;10.97;3.67;;;18.90;99.90;;;;;;5093370;28;20277;-75
2021/08/29 10:08:04;;;;;;;9.60;3.57;;;18.80;99.90;;;;;;5093199;28;20250;-75
2021/08/29 10:10:33;;;;;;;10.97;3.40;;;19.20;99.90;;;;;;5093107;28;20237;-75
2021/08/29 10:13:01;;;;;;;10.53;3.77;;;19.20;99.90;;;;;;5092923;28;20199;-75
2021/08/29 10:15:28;;;;;;;9.70;3.57;;;19.30;99.90;;;;;;5093067;28;20226;-75
2021/08/29 10:17:59;;;;;;;12.73;3.43;;;19.60;99.90;;;;;;5092904;28;20201;-76
2021/08/29 10:20:26;;;;;;;8.73;3.53;;;19.70;99.90;;;;;;5092949;28;20289;-75
2021/08/29 10:22:54;;;;;;;7.97;3.37;;;19.60;99.90;;;;;;5093035;28;20286;-76
2021/08/29 10:25:21;;;;;;;13.83;3.60;;;19.70;99.90;;;;;;5092972;28;20206;-75
2021/08/29 10:27:58;;;;;;;11.97;3.57;;;19.90;99.90;;;;;;5092928;28;20286;-75
2021/08/29 10:30:29;;;;;;;7.23;3.30;;;20.10;99.90;;;;;;5092905;28;20771;-79
2021/08/29 10:32:59;;;;;;;8.13;3.13;;;19.90;99.90;;;;;;5093028;28;20230;-77
2021/08/29 10:35:26;;;;;;;8.80;3.20;;;19.80;99.90;;;;;;5092989;28;20227;-78
2021/08/29 10:37:53;;;;;;;8.23;3.30;;;19.80;99.90;;;;;;5092799;28;20287;-76
2021/08/29 10:40:22;;;;;;;12.73;3.50;;;19.90;99.90;;;;;;5093104;28;20194;-76
2021/08/29 10:42:49;;;;;;;11.43;3.00;;;19.80;99.90;;;;;;5095436;28;20285;-75
2021/08/29 10:45:16;;;;;;;9.57;2.60;;;19.90;99.90;;;;;;5096816;28;20195;-75
2021/08/29 10:47:46;;;;;;;10.97;3.70;;;19.90;99.90;;;;;;5096885;28;20294;-75
2021/08/29 10:50:18;;;;;;;9.80;3.03;;;19.70;99.90;;;;;;5096557;28;20258;-74
2021/08/29 10:52:46;;;;;;;13.13;2.83;;;19.90;99.90;;;;;;5097127;28;20281;-76
2021/08/29 10:55:18;;;;;;;11.23;2.80;;;20.00;99.90;;;;;;5096587;28;20195;-76
2021/08/29 10:57:46;;;;;;;9.10;2.90;;;20.20;99.90;;;;;;5096933;28;20294;-75
2021/08/29 11:00:17;;;;;;;13.97;3.00;;;20.40;99.90;;;;;;5096460;28;20726;-78
2021/08/29 11:02:47;;;;;;;8.87;3.03;;;20.50;99.90;;;;;;5096357;28;20244;-75
2021/08/29 11:05:16;;;;;;;8.50;2.60;;;20.50;99.90;;;;;;5096365;28;20230;-75
2021/08/29 11:07:51;;;;;;;7.60;2.70;;;20.30;99.90;;;;;;5096274;28;20198;-76
2021/08/29 11:10:45;;;;;;;7.63;2.90;;;20.30;99.90;;;;;;5096312;28;20583;-75
2021/08/29 11:13:39;;;;;;;7.17;3.00;;;20.00;99.90;;;;;;5096462;28;20628;-75
2021/08/29 11:16:16;;;;;;;12.87;3.20;;;19.90;99.90;;;;;;5096146;28;20226;-76
2021/08/29 11:19:18;;;;;;;8.83;2.63;;;19.80;99.90;;;;;;5096593;28;20213;-75
2021/08/29 11:22:13;;;;;;;7.57;2.73;;;19.60;99.90;;;;;;5052244;28;20198;-75
2021/08/29 11:24:55;;;;;;;7.43;2.80;;;19.60;99.90;;;;;;5096468;28;20199;-75
2021/08/29 11:27:54;;;;;;;9.03;2.57;;;19.40;99.90;;;;;;5095956;28;20241;-75
2021/08/29 11:30:23;;;;;;;9.83;2.93;;;19.40;99.90;;;;;;5096167;28;20280;-79
2021/08/29 11:33:00;;;;;;;8.70;3.03;;;19.50;99.90;;;;;;5095763;28;20307;-79
2021/08/29 11:35:30;;;;;;;13.33;3.00;;;19.60;99.90;;;;;;5096055;28;20561;-76
2021/08/29 11:38:07;;;;;;;9.63;2.60;;;19.60;99.90;;;;;;5095644;28;20202;-76
2021/08/29 11:41:01;;;;;;;9.40;3.00;;;19.20;99.90;;;;;;5095750;28;20275;-76
2021/08/29 11:43:34;;;;;;;9.83;2.67;;;19.20;99.90;;;;;;5048811;28;20323;-76
2021/08/29 11:46:09;;;;;;;7.77;2.80;;;18.90;99.90;;;;;;5095819;28;20248;-78
2021/08/29 11:48:37;;;;;;;8.93;2.70;;;19.00;99.90;;;;;;5095542;28;20664;-77
2021/08/29 11:51:06;;;;;;;10.13;2.97;;;19.00;99.90;;;;;;5095417;28;20227;-76
2021/08/29 11:53:47;;;;;;;9.27;2.67;;;19.20;99.90;;;;;;5094458;28;20195;-76
2021/08/29 11:56:17;;;;;;;7.27;2.40;;;19.10;99.90;;;;;;5095636;28;20283;-78
2021/08/29 11:58:48;;;;;;;7.43;2.47;;;19.10;99.90;;;;;;5095385;28;20554;-77
2021/08/29 12:01:16;;;;;;;9.13;2.60;;;18.90;99.90;;;;;;5095239;28;20608;-77
2021/08/29 12:03:44;;;;;;;7.20;2.50;;;18.50;99.90;;;;;;5095618;28;20230;-76
2021/08/29 12:06:20;;;;;;;8.63;3.00;;;18.40;99.90;;;;;;5095475;28;20535;-74
2021/08/29 12:09:01;;;;;;;6.43;2.70;;;18.60;99.90;;;;;;5095328;28;20259;-75
2021/08/29 12:11:29;;;;;;;5.27;2.33;;;18.70;99.90;;;;;;5095278;28;20261;-74
2021/08/29 12:13:57;;;;;;;10.00;2.70;;;18.70;99.90;;;;;;5095058;28;20237;-75
2021/08/29 12:16:25;;;;;;;7.43;2.70;;;18.20;99.90;;;;;;5095025;28;20191;-76
2021/08/29 12:18:53;;;;;;;8.03;2.60;;;18.10;99.90;;;;;;5095061;28;20282;-75
2021/08/29 12:21:22;;;;;;;9.43;3.00;;;17.60;99.90;;;;;;5095162;28;20226;-76
2021/08/29 12:23:50;;;;;;;10.70;2.63;;;17.40;99.90;;;;;;5094952;28;20202;-75
2021/08/29 12:26:22;;;;;;;9.60;2.80;;;16.90;99.90;;;;;;5109923;28;20664;-75
2021/08/29 12:29:01;;;;;;;11.77;2.93;;;16.70;99.90;;;;;;5095364;28;20282;-75
2021/08/29 12:31:28;;;;;;;7.07;2.47;;;16.60;99.90;;;;;;5094713;28;20589;-73
2021/08/29 12:33:55;;;;;;;6.83;2.77;;;16.40;99.90;;;;;;5094694;28;20282;-75
2021/08/29 12:36:24;;;;;;;10.23;3.10;;;16.40;99.90;;;;;;5094696;28;20553;-74
2021/08/29 12:38:54;;;;;;;6.90;2.67;;;16.40;99.90;;;;;;5094634;28;20656;-75
2021/08/29 12:41:21;;;;;;;8.20;2.93;;;16.40;99.90;;;;;;5094589;28;20195;-75
2021/08/29 12:43:48;;;;;;;6.80;3.10;;;16.50;99.90;;;;;;5094299;28;20214;-75
2021/08/29 12:46:15;;;;;;;9.47;3.20;;;16.60;99.90;;;;;;5094687;28;20631;-76
2021/08/29 12:48:42;;;;;;;6.83;3.00;;;16.60;99.90;;;;;;5094382;28;20238;-77
2021/08/29 12:51:10;;;;;;;9.37;2.73;;;16.60;99.90;;;;;;5094392;28;20317;-76